Yamato Maru — JD2408 — position and weather

sailwx.info

Track history (hours):
 
Tides and Currents Weather Stations Pressure Air Temp Water Temp Dewpoint Dewpoint Depression Visibility Wind Speed Wind Dir Waves Ship Positions

Yamato Maru

Last reported at 2017-Nov-09 12:06 UTC. Time now 2017-Nov-24 16:42 UTC.
Position N 35°06' E 139°41'.
Warning: this ship's position is 15 days out of date.

Length 72 m; draft 4.9 m.

Type: Ship. MMSI: 431000080.

Date/timePositionNaut miles runAvg speedWind from/ knotsBaromVisibWave heightAir tempDewpointWater temp
2017-Nov-09 12:06N 35°06' E 139°41'211.6
2017-Nov-09 11:56N 35°07' E 139°43'612.9
2017-Nov-09 11:29N 35°12' E 139°46'612.0
2017-Nov-09 11:00N 35°18' E 139°44'612.2
2017-Nov-09 10:30N 35°24' E 139°42'612.6
2017-Nov-09 10:00N 35°28' E 139°48'3 1.4
2017-Nov-09 07:36N 35°31' E 139°46'0 0.0
2017-Nov-09 07:30N 35°31' E 139°46'0 0.2
2017-Nov-09 07:00N 35°31' E 139°46'4 0.2
2017-Nov-08 12:42N 35°30' E 139°50'0 0.1
2017-Nov-08 12:12N 35°30' E 139°50'0 0.3
2017-Nov-08 12:00N 35°30' E 139°50'0 0.0
2017-Nov-08 11:27N 35°30' E 139°50'0 0.0
2017-Nov-08 11:00N 35°30' E 139°50'0 0.0
2017-Nov-08 10:30N 35°30' E 139°50'6 8.9
2017-Nov-08 09:50N 35°25' E 139°47'413.8
2017-Nov-08 09:30N 35°21' E 139°45'10 0.4
2017-Nov-07 08:48N 35°11' E 139°45'311.1
2017-Nov-07 08:30N 35°14' E 139°46'611.3
2017-Nov-07 07:59N 35°19' E 139°43'511.2
2017-Nov-07 07:31N 35°25' E 139°43'611.4
2017-Nov-07 07:00N 35°29' E 139°47'2 0.9
2017-Nov-07 04:16N 35°31' E 139°46'0 0.5
2017-Nov-07 04:00N 35°31' E 139°46'4 3.5
2017-Nov-07 02:56N 35°30' E 139°50'243 5.5
2017-Nov-05 06:36N 34°25' E 135°04'214.8
2017-Nov-05 06:30N 34°26' E 135°06'714.4
2017-Nov-05 06:00N 34°30' E 135°13'713.4
2017-Nov-05 05:29N 34°34' E 135°19'510.3
2017-Nov-05 05:00N 34°35' E 135°25'0 0.1
2017-Nov-04 22:41N 34°35' E 135°26'0 0.8
2017-Nov-04 22:30N 34°35' E 135°26'2 3.9
2017-Nov-04 22:00N 34°36' E 135°24'4 2.0
2017-Nov-04 20:03N 34°36' E 135°19'0 0.0
2017-Nov-04 19:57N 34°36' E 135°19'0 0.1
2017-Nov-04 19:15N 34°36' E 135°19'0 0.0
2017-Nov-04 18:09N 34°36' E 135°19'0 0.0
2017-Nov-04 17:57N 34°36' E 135°19'0 0.0
2017-Nov-04 17:27N 34°36' E 135°19'0 0.0
2017-Nov-04 16:51N 34°36' E 135°19'0 0.0
2017-Nov-04 16:27N 34°36' E 135°19'0 0.0
2017-Nov-04 15:45N 34°36' E 135°19'0 0.2
2017-Nov-04 15:27N 34°36' E 135°19'0 0.0
2017-Nov-04 14:03N 34°36' E 135°19'0 0.0
2017-Nov-04 08:51N 34°36' E 135°19'0 0.0
2017-Nov-04 08:27N 34°36' E 135°19'0 0.0
2017-Nov-04 07:51N 34°36' E 135°19'0 0.0
2017-Nov-04 06:33N 34°36' E 135°19'0 0.0
2017-Nov-04 06:21N 34°36' E 135°19'0 0.0
2017-Nov-04 05:51N 34°36' E 135°19'0 0.0
2017-Nov-04 04:15N 34°36' E 135°19'0 0.0
2017-Nov-04 03:57N 34°36' E 135°19'0 0.0
2017-Nov-04 03:27N 34°36' E 135°19'0 0.0
2017-Nov-04 02:57N 34°36' E 135°19'0 0.0
2017-Nov-04 02:27N 34°36' E 135°19'0 0.0
2017-Nov-04 01:15N 34°36' E 135°19'0 0.0
2017-Nov-04 00:57N 34°36' E 135°19'0 0.0
2017-Nov-04 00:27N 34°36' E 135°19'0 0.0
2017-Nov-03 23:51N 34°36' E 135°19'0 0.0
2017-Nov-03 23:27N 34°36' E 135°19'0 0.0
2017-Nov-03 22:51N 34°36' E 135°19'0 0.0
2017-Nov-03 22:27N 34°36' E 135°19'0 0.0
2017-Nov-03 21:51N 34°36' E 135°19'0 0.0
2017-Nov-03 21:15N 34°36' E 135°19'0 0.0
2017-Nov-03 20:57N 34°36' E 135°19'0 0.0
2017-Nov-03 20:27N 34°36' E 135°19'0 0.0
2017-Nov-03 19:51N 34°36' E 135°19'0 0.0
2017-Nov-03 19:27N 34°36' E 135°19'0 0.0
2017-Nov-03 18:57N 34°36' E 135°19'0 0.0
2017-Nov-03 18:27N 34°36' E 135°19'0 0.1
2017-Nov-03 17:57N 34°36' E 135°19'0 0.0
2017-Nov-03 17:27N 34°36' E 135°19'0 0.0
2017-Nov-03 16:57N 34°36' E 135°19'0 0.0
2017-Nov-03 16:27N 34°36' E 135°19'0 0.0
2017-Nov-03 15:57N 34°36' E 135°19'0 0.0
2017-Nov-03 15:27N 34°36' E 135°19'0 0.0
2017-Nov-03 14:51N 34°36' E 135°19'0 0.0
2017-Nov-03 14:15N 34°36' E 135°19'0 0.0
2017-Nov-03 13:57N 34°36' E 135°19'0 0.0
2017-Nov-03 13:27N 34°36' E 135°19'0 0.0
2017-Nov-03 12:57N 34°36' E 135°19'0 0.0
2017-Nov-03 12:27N 34°36' E 135°19'0 0.0
2017-Nov-03 11:57N 34°36' E 135°19'2 3.6
2017-Nov-03 11:30N 34°35' E 135°18'712.4
2017-Nov-03 10:58N 34°30' E 135°12'1812.6
2017-Nov-03 09:31N 34°15' E 134°59'013.0
2017-Nov-03 09:30N 34°15' E 134°59'612.9
2017-Nov-03 09:00N 34°08' E 135°00'21010.4
2017-Nov-02 12:54N 34°48' E 139°11'2111.2
2017-Nov-02 11:03N 34°59' E 139°31'212.1
2017-Nov-02 10:55N 35°00' E 139°33'512.6
2017-Nov-02 10:29N 35°04' E 139°38'612.8
2017-Nov-02 10:00N 35°08' E 139°43'713.2
2017-Nov-02 09:31N 35°14' E 139°46'713.2
2017-Nov-02 09:00N 35°20' E 139°42'612.2
2017-Nov-02 08:30N 35°26' E 139°45'6 5.1
2017-Nov-02 07:17N 35°30' E 139°50'31 0.6
2017-Oct-31 04:02N 35°04' E 139°33'212.9
2017-Oct-31 03:52N 35°04' E 139°35'513.6
2017-Oct-31 03:30N 35°06' E 139°41'612.6
2017-Oct-31 03:00N 35°11' E 139°45'611.8
2017-Oct-31 02:30N 35°17' E 139°45'612.0
2017-Oct-31 02:00N 35°23' E 139°42'612.2
2017-Oct-31 01:30N 35°27' E 139°48'6 0.5
2017-Oct-30 12:21N 35°28' E 139°55'  
Track history (hours):
 
Tides and Currents Weather Stations Pressure Air Temp Water Temp Dewpoint Dewpoint Depression Visibility Wind Speed Wind Dir Waves Ship Positions

Yamato Maru

Last reported at 2017-Nov-09 12:06 UTC. Time now 2017-Nov-24 16:42 UTC.
Position N 35°06' E 139°41'.
Warning: this ship's position is 15 days out of date.

Length 72 m; draft 4.9 m.

Type: Ship. MMSI: 431000080.

Date/timePositionNaut miles runAvg speedWind from/ knotsBaromVisibWave heightAir tempDewpointWater temp
2017-Nov-09 12:06N 35°06' E 139°41'211.6
2017-Nov-09 11:56N 35°07' E 139°43'612.9
2017-Nov-09 11:29N 35°12' E 139°46'612.0
2017-Nov-09 11:00N 35°18' E 139°44'612.2
2017-Nov-09 10:30N 35°24' E 139°42'612.6
2017-Nov-09 10:00N 35°28' E 139°48'3 1.4
2017-Nov-09 07:36N 35°31' E 139°46'0 0.0
2017-Nov-09 07:30N 35°31' E 139°46'0 0.2
2017-Nov-09 07:00N 35°31' E 139°46'4 0.2
2017-Nov-08 12:42N 35°30' E 139°50'0 0.1
2017-Nov-08 12:12N 35°30' E 139°50'0 0.3
2017-Nov-08 12:00N 35°30' E 139°50'0 0.0
2017-Nov-08 11:27N 35°30' E 139°50'0 0.0
2017-Nov-08 11:00N 35°30' E 139°50'0 0.0
2017-Nov-08 10:30N 35°30' E 139°50'6 8.9
2017-Nov-08 09:50N 35°25' E 139°47'413.8
2017-Nov-08 09:30N 35°21' E 139°45'10 0.4
2017-Nov-07 08:48N 35°11' E 139°45'311.1
2017-Nov-07 08:30N 35°14' E 139°46'611.3
2017-Nov-07 07:59N 35°19' E 139°43'511.2
2017-Nov-07 07:31N 35°25' E 139°43'611.4
2017-Nov-07 07:00N 35°29' E 139°47'2 0.9
2017-Nov-07 04:16N 35°31' E 139°46'0 0.5
2017-Nov-07 04:00N 35°31' E 139°46'4 3.5
2017-Nov-07 02:56N 35°30' E 139°50'243 5.5
2017-Nov-05 06:36N 34°25' E 135°04'214.8
2017-Nov-05 06:30N 34°26' E 135°06'714.4
2017-Nov-05 06:00N 34°30' E 135°13'713.4
2017-Nov-05 05:29N 34°34' E 135°19'510.3
2017-Nov-05 05:00N 34°35' E 135°25'0 0.1
2017-Nov-04 22:41N 34°35' E 135°26'0 0.8
2017-Nov-04 22:30N 34°35' E 135°26'2 3.9
2017-Nov-04 22:00N 34°36' E 135°24'4 2.0
2017-Nov-04 20:03N 34°36' E 135°19'0 0.0
2017-Nov-04 19:57N 34°36' E 135°19'0 0.1
2017-Nov-04 19:15N 34°36' E 135°19'0 0.0
2017-Nov-04 18:09N 34°36' E 135°19'0 0.0
2017-Nov-04 17:57N 34°36' E 135°19'0 0.0
2017-Nov-04 17:27N 34°36' E 135°19'0 0.0
2017-Nov-04 16:51N 34°36' E 135°19'0 0.0
2017-Nov-04 16:27N 34°36' E 135°19'0 0.0
2017-Nov-04 15:45N 34°36' E 135°19'0 0.2
2017-Nov-04 15:27N 34°36' E 135°19'0 0.0
2017-Nov-04 14:03N 34°36' E 135°19'0 0.0
2017-Nov-04 08:51N 34°36' E 135°19'0 0.0
2017-Nov-04 08:27N 34°36' E 135°19'0 0.0
2017-Nov-04 07:51N 34°36' E 135°19'0 0.0
2017-Nov-04 06:33N 34°36' E 135°19'0 0.0
2017-Nov-04 06:21N 34°36' E 135°19'0 0.0
2017-Nov-04 05:51N 34°36' E 135°19'0 0.0
2017-Nov-04 04:15N 34°36' E 135°19'0 0.0
2017-Nov-04 03:57N 34°36' E 135°19'0 0.0
2017-Nov-04 03:27N 34°36' E 135°19'0 0.0
2017-Nov-04 02:57N 34°36' E 135°19'0 0.0
2017-Nov-04 02:27N 34°36' E 135°19'0 0.0
2017-Nov-04 01:15N 34°36' E 135°19'0 0.0
2017-Nov-04 00:57N 34°36' E 135°19'0 0.0
2017-Nov-04 00:27N 34°36' E 135°19'0 0.0
2017-Nov-03 23:51N 34°36' E 135°19'0 0.0
2017-Nov-03 23:27N 34°36' E 135°19'0 0.0
2017-Nov-03 22:51N 34°36' E 135°19'0 0.0
2017-Nov-03 22:27N 34°36' E 135°19'0 0.0
2017-Nov-03 21:51N 34°36' E 135°19'0 0.0
2017-Nov-03 21:15N 34°36' E 135°19'0 0.0
2017-Nov-03 20:57N 34°36' E 135°19'0 0.0
2017-Nov-03 20:27N 34°36' E 135°19'0 0.0
2017-Nov-03 19:51N 34°36' E 135°19'0 0.0
2017-Nov-03 19:27N 34°36' E 135°19'0 0.0
2017-Nov-03 18:57N 34°36' E 135°19'0 0.0
2017-Nov-03 18:27N 34°36' E 135°19'0 0.1
2017-Nov-03 17:57N 34°36' E 135°19'0 0.0
2017-Nov-03 17:27N 34°36' E 135°19'0 0.0
2017-Nov-03 16:57N 34°36' E 135°19'0 0.0
2017-Nov-03 16:27N 34°36' E 135°19'0 0.0
2017-Nov-03 15:57N 34°36' E 135°19'0 0.0
2017-Nov-03 15:27N 34°36' E 135°19'0 0.0
2017-Nov-03 14:51N 34°36' E 135°19'0 0.0
2017-Nov-03 14:15N 34°36' E 135°19'0 0.0
2017-Nov-03 13:57N 34°36' E 135°19'0 0.0
2017-Nov-03 13:27N 34°36' E 135°19'0 0.0
2017-Nov-03 12:57N 34°36' E 135°19'0 0.0
2017-Nov-03 12:27N 34°36' E 135°19'0 0.0
2017-Nov-03 11:57N 34°36' E 135°19'2 3.6
2017-Nov-03 11:30N 34°35' E 135°18'712.4
2017-Nov-03 10:58N 34°30' E 135°12'1812.6
2017-Nov-03 09:31N 34°15' E 134°59'013.0
2017-Nov-03 09:30N 34°15' E 134°59'612.9
2017-Nov-03 09:00N 34°08' E 135°00'21010.4
2017-Nov-02 12:54N 34°48' E 139°11'2111.2
2017-Nov-02 11:03N 34°59' E 139°31'212.1
2017-Nov-02 10:55N 35°00' E 139°33'512.6
2017-Nov-02 10:29N 35°04' E 139°38'612.8
2017-Nov-02 10:00N 35°08' E 139°43'713.2
2017-Nov-02 09:31N 35°14' E 139°46'713.2
2017-Nov-02 09:00N 35°20' E 139°42'612.2
2017-Nov-02 08:30N 35°26' E 139°45'6 5.1
2017-Nov-02 07:17N 35°30' E 139°50'31 0.6
2017-Oct-31 04:02N 35°04' E 139°33'212.9
2017-Oct-31 03:52N 35°04' E 139°35'513.6
2017-Oct-31 03:30N 35°06' E 139°41'612.6
2017-Oct-31 03:00N 35°11' E 139°45'611.8
2017-Oct-31 02:30N 35°17' E 139°45'612.0
2017-Oct-31 02:00N 35°23' E 139°42'612.2
2017-Oct-31 01:30N 35°27' E 139°48'6 0.5
2017-Oct-30 12:21N 35°28' E 139°55'  

Dump ship's entire track history